HTDA/DAR METAR and TAF weather

Enter ICAO airport designator
Station Type Date Time Source
HTDA METAR 2022/06/27 07:00 UTC NOAA

HTDA 270700Z 20010KT 9999 FEW021 27/20 Q1021 NOSIG


Station Type Date Time Source
HTDA Decoded METAR 2022/06/27 07:00 UTC NOAA

Dar Es Salaam Airport, Tanzania (HTDA) 06-52S 039-12E 55M
Jun 27, 2022 - 03:00 AM EDT / 2022.06.27 0700 UTC
Wind: from the SSW (200 degrees) at 12 MPH (10 KT):0
Visibility: greater than 7 mile(s):0
Sky conditions: mostly clear
Temperature: 80 F (27 C)
Dew Point: 68 F (20 C)
Relative Humidity: 65%
Pressure (altimeter): 30.15 in. Hg (1021 hPa)
ob: HTDA 270700Z 20010KT 9999 FEW021 27/20 Q1021 NOSIG
cycle: 7

Station Type Date Time Source
HTDA TAF 2022/06/27 06:36 UTC NOAA

TAF TAF HTDA 270500Z 2706/2812 21010KT 9999 SCT015
BECMG 2708/2711 18015KT BKN30

Example: see airport list